createdAt,value
2023-11-03T00:01:16.529Z,96210.50
2023-11-03T00:03:43.452Z,96189.08
2023-11-03T00:06:10.329Z,96200.92
2023-11-03T00:08:37.077Z,96191.82
2023-11-03T00:11:04.533Z,96203.63
2023-11-03T00:13:32.201Z,96190.91
2023-11-03T00:15:58.982Z,96181.70
2023-11-03T00:18:25.822Z,96175.79
2023-11-03T00:20:52.546Z,96171.89
2023-11-03T00:23:19.293Z,96172.54
2023-11-03T00:25:46.037Z,96157.85
2023-11-03T00:28:12.792Z,96152.02
2023-11-03T00:30:39.568Z,96142.89
2023-11-03T00:33:06.829Z,96140.34
2023-11-03T00:35:35.139Z,96125.96
2023-11-03T00:38:01.952Z,96123.91
2023-11-03T00:40:29.113Z,96120.95
2023-11-03T00:42:56.116Z,96121.30
2023-11-03T00:45:22.914Z,96130.30
2023-11-03T00:47:50.038Z,96123.12
2023-11-03T00:50:17.028Z,96120.11
2023-11-03T00:52:43.880Z,96126.61
2023-11-03T00:55:10.671Z,96131.63
2023-11-03T00:57:37.460Z,96128.89
2023-11-03T01:00:05.061Z,96122.86
2023-11-03T01:02:31.829Z,96128.98
2023-11-03T01:04:58.635Z,96125.39
2023-11-03T01:07:25.511Z,96136.91
2023-11-03T01:09:52.248Z,96139.45
2023-11-03T01:12:19.191Z,96141.93
2023-11-03T01:14:45.960Z,96141.90
2023-11-03T01:17:13.144Z,96130.55
2023-11-03T01:19:39.831Z,96135.02
2023-11-03T01:22:06.726Z,96130.56
2023-11-03T01:24:33.552Z,96123.64
2023-11-03T01:27:00.236Z,96117.35
2023-11-03T01:29:26.966Z,96114.30
2023-11-03T01:31:53.702Z,96116.80
2023-11-03T01:34:20.451Z,96099.71
2023-11-03T01:36:47.211Z,96107.70
2023-11-03T01:39:14.349Z,96106.04
2023-11-03T01:41:40.999Z,96102.44
2023-11-03T01:44:09.408Z,96110.78
2023-11-03T01:46:40.608Z,96109.26
2023-11-03T01:49:09.056Z,96112.77
2023-11-03T01:51:36.765Z,96117.14
2023-11-03T01:54:05.327Z,96126.67
2023-11-03T01:56:33.895Z,96128.95
2023-11-03T01:59:06.111Z,96129.50
2023-11-03T02:01:33.625Z,96121.66
2023-11-03T02:04:00.569Z,96116.60
2023-11-03T02:06:27.640Z,96113.70
2023-11-03T02:08:55.065Z,96106.92
2023-11-03T02:11:29.431Z,96111.77
2023-11-03T02:13:57.215Z,96104.34
2023-11-03T02:16:24.831Z,96105.68
2023-11-03T02:18:51.781Z,96101.30
2023-11-03T02:21:19.003Z,96100.80
2023-11-03T02:23:45.771Z,96099.80
2023-11-03T02:26:12.402Z,96096.23
2023-11-03T02:28:39.360Z,96091.15
2023-11-03T02:31:06.272Z,96091.16
2023-11-03T02:33:33.054Z,96087.62
2023-11-03T02:35:59.896Z,96092.27
2023-11-03T02:38:26.659Z,96073.04
2023-11-03T02:40:53.394Z,96065.78
2023-11-03T02:43:20.176Z,96061.53
2023-11-03T02:45:46.914Z,96052.29
2023-11-03T02:48:13.661Z,96033.90
2023-11-03T02:50:40.612Z,96034.89
2023-11-03T02:53:07.340Z,96042.89
2023-11-03T02:55:34.099Z,96047.70
2023-11-03T02:58:00.864Z,96056.48
2023-11-03T03:00:27.716Z,96059.66
2023-11-03T03:02:54.873Z,96059.81
2023-11-03T03:05:21.684Z,96055.96
2023-11-03T03:07:48.493Z,96057.31
2023-11-03T03:10:15.708Z,96057.91
2023-11-03T03:12:42.685Z,96049.60
2023-11-03T03:15:10.880Z,96045.64
2023-11-03T03:17:37.533Z,96044.81
2023-11-03T03:20:04.944Z,96040.21
2023-11-03T03:22:31.576Z,96044.51
2023-11-03T03:24:58.378Z,96047.88
2023-11-03T03:27:25.221Z,96046.16
2023-11-03T03:29:52.250Z,96049.23
2023-11-03T03:32:19.141Z,96049.53
2023-11-03T03:34:46.049Z,96030.64
2023-11-03T03:37:12.763Z,96035.95
2023-11-03T03:39:39.778Z,96048.33
2023-11-03T03:42:07.380Z,96051.89
2023-11-03T03:44:34.449Z,96052.94
2023-11-03T03:47:01.303Z,96046.38
2023-11-03T03:49:28.040Z,96036.36
2023-11-03T03:51:54.801Z,96038.88
2023-11-03T03:54:21.534Z,96028.52
2023-11-03T03:56:48.384Z,96018.31
2023-11-03T03:59:15.434Z,96014.14
2023-11-03T04:01:45.554Z,96017.55
2023-11-03T04:04:12.353Z,96017.73
2023-11-03T04:06:39.291Z,96007.17
2023-11-03T04:09:06.643Z,96007.17
2023-11-03T04:11:33.584Z,95994.63
2023-11-03T04:14:00.416Z,95979.54
2023-11-03T04:16:37.403Z,95977.78
2023-11-03T04:19:05.064Z,95960.83
2023-11-03T04:21:31.990Z,95955.39
2023-11-03T04:23:58.772Z,95951.00
2023-11-03T04:26:26.235Z,95957.64
2023-11-03T04:28:53.712Z,95960.70
2023-11-03T04:31:20.632Z,95962.16
2023-11-03T04:33:47.880Z,95950.31
2023-11-03T04:36:14.762Z,95952.41
2023-11-03T04:38:41.922Z,95944.76
2023-11-03T04:41:08.674Z,95929.93
2023-11-03T04:43:35.324Z,95909.58
2023-11-03T04:46:02.515Z,95903.48
2023-11-03T04:48:29.237Z,95900.33
2023-11-03T04:50:55.979Z,95909.85
2023-11-03T04:53:22.727Z,95915.83
2023-11-03T04:55:49.462Z,95912.33
2023-11-03T04:58:17.485Z,95917.23
2023-11-03T05:00:44.626Z,95924.73
2023-11-03T05:03:11.550Z,95935.33
2023-11-03T05:05:38.859Z,95933.27
2023-11-03T05:08:05.858Z,95926.65
2023-11-03T05:10:32.603Z,95935.49
2023-11-03T05:12:59.266Z,95956.08
2023-11-03T05:15:25.984Z,95961.19
2023-11-03T05:17:52.795Z,95954.85
2023-11-03T05:20:20.922Z,95944.98
2023-11-03T05:22:48.001Z,95924.98
2023-11-03T05:25:15.142Z,95920.45
2023-11-03T05:27:42.255Z,95928.86
2023-11-03T05:30:09.770Z,95942.92
2023-11-03T05:32:37.250Z,95954.86
2023-11-03T05:35:04.257Z,95961.39
2023-11-03T05:37:31.115Z,95949.73
2023-11-03T05:39:57.894Z,95943.73
2023-11-03T05:42:24.900Z,95949.08
2023-11-03T05:44:51.546Z,95958.73
2023-11-03T05:47:18.291Z,95962.25
2023-11-03T05:49:45.090Z,95953.95
2023-11-03T05:52:11.985Z,95944.81
2023-11-03T05:54:38.840Z,95946.13
2023-11-03T05:57:05.801Z,95927.56
2023-11-03T05:59:32.541Z,95902.30
2023-11-03T06:01:59.188Z,95899.20
2023-11-03T06:04:25.857Z,95907.53
2023-11-03T06:06:52.719Z,95910.07
2023-11-03T06:09:19.424Z,95892.55
2023-11-03T06:11:46.260Z,95889.46
2023-11-03T06:14:13.243Z,95892.85
2023-11-03T06:16:39.873Z,95885.19
2023-11-03T06:19:07.016Z,95872.55
2023-11-03T06:21:33.902Z,95870.14
2023-11-03T06:24:00.631Z,95867.54
2023-11-03T06:26:27.279Z,95866.48
2023-11-03T06:28:54.240Z,95859.71
2023-11-03T06:31:21.095Z,95844.86
2023-11-03T06:33:48.130Z,95833.46
2023-11-03T06:36:15.181Z,95842.13
2023-11-03T06:38:42.164Z,95857.90
2023-11-03T06:41:11.495Z,95878.31
2023-11-03T06:43:38.625Z,95880.23
2023-11-03T06:46:05.407Z,95880.58
2023-11-03T06:48:32.347Z,95880.95
2023-11-03T06:50:59.233Z,95900.20
2023-11-03T06:53:26.222Z,95903.02
2023-11-03T06:55:52.898Z,95902.64
2023-11-03T06:58:19.688Z,95892.23
2023-11-03T07:00:46.397Z,95876.63
2023-11-03T07:03:13.330Z,95864.98
2023-11-03T07:05:40.229Z,95853.95
2023-11-03T07:08:07.430Z,95844.70
2023-11-03T07:10:34.176Z,95835.12
2023-11-03T07:13:01.167Z,95846.66
2023-11-03T07:15:28.016Z,95862.73
2023-11-03T07:17:54.730Z,95876.39
2023-11-03T07:20:21.503Z,95885.77
2023-11-03T07:22:48.157Z,95877.30
2023-11-03T07:25:14.931Z,95868.83
2023-11-03T07:27:41.813Z,95867.70
2023-11-03T07:30:09.452Z,95872.10
2023-11-03T07:32:36.409Z,95868.13
2023-11-03T07:35:03.410Z,95858.80
2023-11-03T07:37:30.138Z,95850.52
2023-11-03T07:39:56.966Z,95857.80
2023-11-03T07:42:23.933Z,95857.86
2023-11-03T07:44:50.707Z,95852.33
2023-11-03T07:47:17.468Z,95850.25
2023-11-03T07:49:44.396Z,95853.20
2023-11-03T07:52:11.259Z,95852.71
2023-11-03T07:54:38.297Z,95865.83
2023-11-03T07:57:05.499Z,95860.22
2023-11-03T07:59:32.405Z,95863.48
2023-11-03T08:01:59.254Z,95856.47
2023-11-03T08:04:25.971Z,95854.75
2023-11-03T08:06:52.956Z,95840.77
2023-11-03T08:09:19.523Z,95845.73
2023-11-03T08:11:46.088Z,95844.61
2023-11-03T08:14:12.783Z,95849.13
2023-11-03T08:16:45.528Z,95846.21
2023-11-03T08:19:13.078Z,95841.39
2023-11-03T08:21:40.267Z,95842.23
2023-11-03T08:24:07.221Z,95837.02
2023-11-03T08:26:33.941Z,95826.80
2023-11-03T08:29:00.598Z,95818.31
2023-11-03T08:31:28.023Z,95815.64
2023-11-03T08:33:54.793Z,95807.69
2023-11-03T08:36:21.782Z,95807.13
2023-11-03T08:38:49.051Z,95807.37
2023-11-03T08:41:15.804Z,95805.67
2023-11-03T08:43:45.114Z,95805.10
2023-11-03T08:46:11.882Z,95803.17
2023-11-03T08:48:41.749Z,95793.89
2023-11-03T08:51:10.230Z,95778.77
2023-11-03T08:53:37.331Z,95761.49
2023-11-03T08:56:04.337Z,95760.49
2023-11-03T08:58:31.015Z,95759.15
2023-11-03T09:01:01.042Z,95744.58
2023-11-03T09:03:29.924Z,95740.72
2023-11-03T09:05:56.989Z,95729.15
2023-11-03T09:08:23.834Z,95743.93
2023-11-03T09:10:50.696Z,95741.55
2023-11-03T09:13:23.620Z,95742.70
2023-11-03T09:15:52.249Z,95732.35
2023-11-03T09:18:20.846Z,95719.64
2023-11-03T09:20:47.818Z,95712.35
2023-11-03T09:23:14.928Z,95709.63
2023-11-03T09:25:41.997Z,95717.64
2023-11-03T09:28:08.942Z,95718.89
2023-11-03T09:30:35.852Z,95713.25
2023-11-03T09:33:03.206Z,95704.40
2023-11-03T09:35:30.140Z,95699.09
2023-11-03T09:37:56.763Z,95692.95
2023-11-03T09:40:23.934Z,95681.95
2023-11-03T09:42:51.488Z,95671.46
2023-11-03T09:45:22.393Z,95652.91
2023-11-03T09:47:53.158Z,95659.42
2023-11-03T09:50:22.684Z,95639.02
2023-11-03T09:52:52.822Z,95626.06
2023-11-03T09:55:21.578Z,95634.73
2023-11-03T09:57:49.860Z,95634.02
2023-11-03T10:00:17.527Z,95628.55
2023-11-03T10:02:44.799Z,95629.26
2023-11-03T10:05:18.882Z,95625.86
2023-11-03T10:08:04.059Z,95616.92
2023-11-03T10:10:32.952Z,95613.79
2023-11-03T10:12:59.782Z,95597.42
2023-11-03T10:15:27.411Z,95602.16
2023-11-03T10:17:55.279Z,95594.61
2023-11-03T10:20:22.433Z,95587.70
2023-11-03T10:22:49.868Z,95596.00
2023-11-03T10:25:17.613Z,95583.29
2023-11-03T10:27:49.198Z,95587.77
2023-11-03T10:30:17.701Z,95582.14
2023-11-03T10:32:45.973Z,95564.20
2023-11-03T10:35:14.994Z,95564.58
2023-11-03T10:37:43.139Z,95565.36
2023-11-03T10:40:11.229Z,95569.48
2023-11-03T10:42:47.984Z,95554.86
2023-11-03T10:45:16.010Z,95535.95
2023-11-03T10:47:53.812Z,95532.88
2023-11-03T10:50:22.550Z,95530.02
2023-11-03T10:53:14.428Z,95534.29
2023-11-03T10:56:22.482Z,95541.45
2023-11-03T10:58:55.269Z,95538.88
2023-11-03T11:02:00.536Z,95539.43
2023-11-03T11:04:34.634Z,95554.53
2023-11-03T11:07:09.057Z,95564.84
2023-11-03T11:09:47.372Z,95561.64
2023-11-03T11:12:15.194Z,95555.95
2023-11-03T11:14:43.822Z,95556.09
2023-11-03T11:17:16.708Z,95559.14
2023-11-03T11:19:46.518Z,95560.10
2023-11-03T11:22:20.775Z,95559.61
2023-11-03T11:24:48.172Z,95546.26
2023-11-03T11:27:16.737Z,95541.09
2023-11-03T11:29:43.833Z,95545.54
2023-11-03T11:32:12.477Z,95552.65
2023-11-03T11:34:42.162Z,95570.81
2023-11-03T11:37:29.448Z,95582.08
2023-11-03T11:39:58.550Z,95578.46
2023-11-03T11:42:30.750Z,95579.98
2023-11-03T11:44:58.295Z,95579.73
2023-11-03T11:47:26.770Z,95577.50
2023-11-03T11:49:55.140Z,95584.93
2023-11-03T11:52:28.741Z,95597.45
2023-11-03T11:54:57.727Z,95600.42
2023-11-03T11:57:27.667Z,95586.59
2023-11-03T11:59:56.061Z,95586.27
2023-11-03T12:02:24.215Z,95578.85
2023-11-03T12:04:52.243Z,95578.22
2023-11-03T12:07:23.116Z,95572.64
2023-11-03T12:09:54.484Z,95574.73
2023-11-03T12:12:25.945Z,95566.70
2023-11-03T12:14:54.008Z,95564.40
2023-11-03T12:17:21.569Z,95548.54
2023-11-03T12:19:49.713Z,95549.50
2023-11-03T12:22:26.576Z,95554.42
2023-11-03T12:24:56.857Z,95560.00
2023-11-03T12:27:25.294Z,95554.15
2023-11-03T12:29:52.619Z,95543.05
2023-11-03T12:32:19.665Z,95531.94
2023-11-03T12:34:46.694Z,95523.21
2023-11-03T12:37:14.685Z,95526.02
2023-11-03T12:39:55.147Z,95512.45
2023-11-03T12:42:23.736Z,95504.73
2023-11-03T12:44:58.533Z,95492.53
2023-11-03T12:47:46.000Z,95478.81
2023-11-03T12:50:20.281Z,95470.89
2023-11-03T12:53:02.774Z,95466.25
2023-11-03T12:55:31.811Z,95465.95
2023-11-03T12:58:00.192Z,95468.70
2023-11-03T13:00:28.627Z,95468.64
2023-11-03T13:02:55.621Z,95471.11
2023-11-03T13:05:23.984Z,95472.04
2023-11-03T13:07:53.013Z,95476.52
2023-11-03T13:10:20.867Z,95477.02
2023-11-03T13:12:48.318Z,95483.55
2023-11-03T13:15:15.136Z,95485.56
2023-11-03T13:17:42.527Z,95479.04
2023-11-03T13:20:11.585Z,95474.69
2023-11-03T13:22:38.651Z,95460.91
2023-11-03T13:25:05.844Z,95459.59
2023-11-03T13:27:32.450Z,95460.00
2023-11-03T13:29:59.272Z,95455.42
2023-11-03T13:32:26.043Z,95461.98
2023-11-03T13:34:52.744Z,95460.70
2023-11-03T13:37:19.753Z,95460.83
2023-11-03T13:39:46.496Z,95465.42
2023-11-03T13:42:13.436Z,95474.15
2023-11-03T13:44:41.570Z,95483.34
2023-11-03T13:47:08.497Z,95482.84
2023-11-03T13:49:36.084Z,95475.30
2023-11-03T13:52:03.315Z,95472.38
2023-11-03T13:54:30.061Z,95474.52
2023-11-03T13:56:56.841Z,95467.65
2023-11-03T13:59:23.572Z,95456.86
2023-11-03T14:01:50.616Z,95443.94
2023-11-03T14:04:17.694Z,95430.98
2023-11-03T14:06:44.424Z,95423.32
2023-11-03T14:09:16.593Z,95421.05
2023-11-03T14:11:44.251Z,95416.01
2023-11-03T14:14:11.022Z,95413.96
2023-11-03T14:16:37.910Z,95411.19
2023-11-03T14:19:04.780Z,95406.71
2023-11-03T14:21:31.856Z,95406.02
2023-11-03T14:23:58.594Z,95428.50
2023-11-03T14:26:25.584Z,95434.56
2023-11-03T14:28:54.689Z,95418.96
2023-11-03T14:31:21.920Z,95413.89
2023-11-03T14:33:48.965Z,95423.33
2023-11-03T14:36:15.804Z,95413.95
2023-11-03T14:38:42.658Z,95413.17
2023-11-03T14:41:09.559Z,95412.56
2023-11-03T14:43:36.567Z,95411.26
2023-11-03T14:46:03.767Z,95410.20
2023-11-03T14:48:30.700Z,95405.38
2023-11-03T14:50:58.277Z,95394.11
2023-11-03T14:53:26.013Z,95378.23
2023-11-03T14:55:52.973Z,95372.68
2023-11-03T14:58:20.401Z,95375.68
2023-11-03T15:00:47.271Z,95382.71
2023-11-03T15:03:14.573Z,95389.80
2023-11-03T15:05:41.619Z,95384.13
2023-11-03T15:08:08.913Z,95372.48
2023-11-03T15:10:39.427Z,95375.17
2023-11-03T15:13:06.727Z,95392.80
2023-11-03T15:15:33.942Z,95419.27
2023-11-03T15:18:02.341Z,95412.48
2023-11-03T15:20:29.352Z,95402.33
2023-11-03T15:22:58.008Z,95410.15
2023-11-03T15:25:25.239Z,95411.44
2023-11-03T15:27:52.327Z,95401.74
2023-11-03T15:30:20.397Z,95401.54
2023-11-03T15:32:48.633Z,95398.41
2023-11-03T15:35:17.231Z,95390.42
2023-11-03T15:37:45.199Z,95356.56
2023-11-03T15:40:14.101Z,95352.55
2023-11-03T15:42:41.134Z,95364.73
2023-11-03T15:45:09.081Z,95356.88
2023-11-03T15:47:35.885Z,95341.75
2023-11-03T15:50:03.054Z,95326.69
2023-11-03T15:52:30.129Z,95332.21
2023-11-03T15:54:57.100Z,95335.34
2023-11-03T15:57:26.398Z,95355.80
2023-11-03T15:59:53.766Z,95356.14
2023-11-03T16:02:20.649Z,95386.75
2023-11-03T16:04:48.338Z,95407.58
2023-11-03T16:07:15.669Z,95407.02
2023-11-03T16:09:42.941Z,95404.77
2023-11-03T16:12:10.414Z,95413.33
2023-11-03T16:14:37.741Z,95437.73
2023-11-03T16:17:05.543Z,95439.59
2023-11-03T16:19:33.427Z,95448.05
2023-11-03T16:22:00.890Z,95444.48
2023-11-03T16:24:28.037Z,95414.51
2023-11-03T16:26:55.026Z,95415.93
2023-11-03T16:29:25.030Z,95418.67
2023-11-03T16:31:52.674Z,95413.66
2023-11-03T16:34:19.954Z,95399.83
2023-11-03T16:36:46.841Z,95408.56
2023-11-03T16:39:14.256Z,95412.91
2023-11-03T16:41:40.937Z,95421.52
2023-11-03T16:44:10.100Z,95429.02
2023-11-03T16:46:37.824Z,95423.94
2023-11-03T16:49:06.079Z,95413.80
2023-11-03T16:51:33.426Z,95428.02
2023-11-03T16:54:00.880Z,95453.56
2023-11-03T16:56:31.088Z,95474.33
2023-11-03T16:58:58.495Z,95467.42
2023-11-03T17:01:25.467Z,95458.18
2023-11-03T17:03:52.654Z,95452.89
2023-11-03T17:06:19.590Z,95447.27
2023-11-03T17:08:47.149Z,95466.61
2023-11-03T17:11:14.226Z,95465.42
2023-11-03T17:13:44.651Z,95459.34
2023-11-03T17:16:11.845Z,95452.62
2023-11-03T17:18:39.729Z,95431.91
2023-11-03T17:21:06.506Z,95409.06
2023-11-03T17:23:34.527Z,95396.67
2023-11-03T17:26:03.996Z,95400.63
2023-11-03T17:28:30.685Z,95407.16
2023-11-03T17:30:57.944Z,95418.64
2023-11-03T17:33:24.964Z,95417.24
2023-11-03T17:35:52.191Z,95432.16
2023-11-03T17:38:18.872Z,95436.05
2023-11-03T17:40:45.716Z,95442.39
2023-11-03T17:43:13.093Z,95449.57
2023-11-03T17:45:42.138Z,95468.81
2023-11-03T17:48:09.634Z,95476.14
2023-11-03T17:50:36.938Z,95481.66
2023-11-03T17:53:03.561Z,95473.77
2023-11-03T17:55:31.317Z,95487.41
2023-11-03T17:57:58.202Z,95485.45
2023-11-03T18:00:25.338Z,95502.92
2023-11-03T18:02:53.694Z,95506.30
2023-11-03T18:05:20.627Z,95505.62
2023-11-03T18:07:47.716Z,95503.16
2023-11-03T18:10:15.674Z,95504.78
2023-11-03T18:12:42.779Z,95505.20
2023-11-03T18:15:11.362Z,95500.39
2023-11-03T18:17:39.166Z,95497.95
2023-11-03T18:20:09.792Z,95489.80
2023-11-03T18:22:36.830Z,95485.39
2023-11-03T18:25:04.185Z,95487.02
2023-11-03T18:27:30.915Z,95501.74
2023-11-03T18:29:57.579Z,95510.16
2023-11-03T18:32:24.319Z,95524.16
2023-11-03T18:34:51.030Z,95537.93
2023-11-03T18:37:17.857Z,95533.03
2023-11-03T18:39:44.855Z,95542.14
2023-11-03T18:42:12.017Z,95539.46
2023-11-03T18:44:39.777Z,95531.48
2023-11-03T18:47:06.759Z,95543.79
2023-11-03T18:52:03.044Z,95559.20
2023-11-03T18:58:14.876Z,95590.67
2023-11-03T19:04:22.207Z,95604.76
2023-11-03T19:06:47.803Z,95613.87
2023-11-03T19:07:52.840Z,95619.17
2023-11-03T19:10:21.839Z,95624.55
2023-11-03T19:12:48.617Z,95627.71
2023-11-03T19:15:15.587Z,95632.10
2023-11-03T19:17:42.436Z,95632.70
2023-11-03T19:20:10.254Z,95627.03
2023-11-03T19:22:38.308Z,95624.36
2023-11-03T19:25:07.726Z,95619.44
2023-11-03T19:27:35.404Z,95615.34
2023-11-03T19:30:02.639Z,95621.27
2023-11-03T19:32:30.407Z,95628.61
2023-11-03T19:34:58.169Z,95628.38
2023-11-03T19:37:26.415Z,95630.41
2023-11-03T19:39:54.001Z,95625.26
2023-11-03T19:42:20.868Z,95623.74
2023-11-03T19:44:50.869Z,95622.31
2023-11-03T19:47:18.214Z,95626.02
2023-11-03T19:49:45.443Z,95626.39
2023-11-03T19:52:12.538Z,95623.81
2023-11-03T19:54:40.267Z,95641.05
2023-11-03T19:57:07.408Z,95647.61
2023-11-03T19:59:34.189Z,95648.10
2023-11-03T20:02:01.756Z,95659.07
2023-11-03T20:04:28.533Z,95671.56
2023-11-03T20:06:57.560Z,95662.96
2023-11-03T20:09:24.546Z,95674.73
2023-11-03T20:11:51.543Z,95660.46
2023-11-03T20:14:18.503Z,95648.50
2023-11-03T20:16:45.404Z,95655.22
2023-11-03T20:19:14.679Z,95668.85
2023-11-03T20:21:41.901Z,95665.56
2023-11-03T20:24:09.585Z,95670.69
2023-11-03T20:26:36.767Z,95676.46
2023-11-03T20:29:03.546Z,95674.54
2023-11-03T20:31:30.307Z,95685.03
2023-11-03T20:33:57.094Z,95693.30
2023-11-03T20:36:24.338Z,95689.66
2023-11-03T20:38:51.159Z,95695.02
2023-11-03T20:41:18.238Z,95708.47
2023-11-03T20:43:44.948Z,95714.20
2023-11-03T20:46:14.380Z,95714.20
2023-11-03T20:48:41.486Z,95719.73
2023-11-03T20:51:09.088Z,95725.56
2023-11-03T20:53:36.977Z,95734.63
2023-11-03T20:56:04.856Z,95719.52
2023-11-03T20:58:31.612Z,95725.70
2023-11-03T21:00:58.360Z,95730.91
2023-11-03T21:03:25.398Z,95719.54
2023-11-03T21:05:52.536Z,95721.96
2023-11-03T21:08:19.302Z,95729.48
2023-11-03T21:10:46.139Z,95734.02
2023-11-03T21:13:12.786Z,95744.36
2023-11-03T21:15:39.579Z,95739.48
2023-11-03T21:18:06.930Z,95757.30
2023-11-03T21:20:33.952Z,95756.98
2023-11-03T21:23:00.827Z,95765.09
2023-11-03T21:25:27.440Z,95770.52
2023-11-03T21:27:55.684Z,95782.96
2023-11-03T21:30:22.424Z,95785.77
2023-11-03T21:32:50.348Z,95799.39
2023-11-03T21:35:17.152Z,95793.37
2023-11-03T21:37:43.937Z,95804.69
2023-11-03T21:40:11.264Z,95810.68
2023-11-03T21:42:37.883Z,95820.64
2023-11-03T21:45:06.627Z,95824.20
2023-11-03T21:47:34.883Z,95831.22
2023-11-03T21:50:01.688Z,95833.96
2023-11-03T21:52:28.537Z,95831.00
2023-11-03T21:54:55.615Z,95833.50
2023-11-03T21:57:22.373Z,95823.43
2023-11-03T21:59:49.504Z,95828.38
2023-11-03T22:02:16.156Z,95826.79
2023-11-03T22:04:43.016Z,95831.84
2023-11-03T22:07:11.295Z,95836.09
2023-11-03T22:09:38.063Z,95837.07
2023-11-03T22:12:04.956Z,95851.08
2023-11-03T22:14:32.043Z,95861.13
2023-11-03T22:16:58.713Z,95866.61
2023-11-03T22:19:25.938Z,95872.55
2023-11-03T22:21:52.842Z,95872.94
2023-11-03T22:24:19.508Z,95885.52
2023-11-03T22:26:47.833Z,95894.67
2023-11-03T22:29:16.415Z,95902.69
2023-11-03T22:31:45.119Z,95916.41
2023-11-03T22:34:12.059Z,95919.38
2023-11-03T22:36:38.874Z,95931.48
2023-11-03T22:39:06.271Z,95937.02
2023-11-03T22:41:33.222Z,95939.09
2023-11-03T22:43:59.861Z,95950.14
2023-11-03T22:46:27.147Z,95955.88
2023-11-03T22:48:54.144Z,95959.23
2023-11-03T22:51:20.972Z,95961.38
2023-11-03T22:53:48.067Z,95964.70
2023-11-03T22:56:22.234Z,95968.59
2023-11-03T22:58:49.652Z,95976.13
2023-11-03T23:01:16.850Z,95979.38
2023-11-03T23:03:43.511Z,95984.38
2023-11-03T23:06:12.898Z,95983.65
2023-11-03T23:08:40.270Z,95986.14
2023-11-03T23:11:07.509Z,95992.48
2023-11-03T23:13:34.363Z,96001.02
2023-11-03T23:16:01.056Z,96003.69
2023-11-03T23:18:27.965Z,96004.64
2023-11-03T23:20:54.801Z,96004.20
2023-11-03T23:23:21.582Z,96009.05
2023-11-03T23:25:50.133Z,96007.92
2023-11-03T23:28:16.874Z,96006.67
2023-11-03T23:30:44.098Z,96010.03
2023-11-03T23:33:11.178Z,96014.86
2023-11-03T23:35:37.936Z,96019.80
2023-11-03T23:38:05.103Z,96022.36
2023-11-03T23:40:31.764Z,96026.23
2023-11-03T23:42:58.594Z,96028.08
2023-11-03T23:45:25.689Z,96028.13
2023-11-03T23:47:52.582Z,96029.55
2023-11-03T23:50:19.352Z,96025.36
2023-11-03T23:52:46.092Z,96029.17
2023-11-03T23:55:12.959Z,96034.86
2023-11-03T23:57:39.978Z,96038.16
